Latest Weather Observations for Cape Bruny AWS

IDT60901

Issued at 7:01 am EDT Friday 9 December 2016 (issued every 10 minutes, with the page automatically refreshed every 10 minutes)

About weather observations | Map of Hobart area stations | Latest observations for Hobart area | Other Formats
Station Details ID: 094198 Name: CAPE BRUNY (CAPE BRUNY) Lat: -43.49 Lon: 147.14 Height: 59.7 m
Data from the previous 72 hours. | See also: Recent months at Cape Bruny AWS
Date/Time
EDT
Temp
°C
App
Temp
°C
Dew
Point
°C
Rel
Hum
%
Delta-T
°C
Wind Press
QNH
hPa
Press
MSL
hPa
Rain since
9am
mm
Dir  Spd
km/h
Gust
km/h
Spd
kts
Gust
kts
09/06:30am 7.7 -4.3 4.5 80 1.4 WSW 57 85 31 46 1001.7 1001.7 12.2
09/06:00am 7.6 -3.8 5.1 84 1.1 WSW 54 74 29 40 1001.1 1001.1 12.0
09/05:34am 7.8 -3.8 5.8 87 0.9 WSW 56 74 30 40 1000.3 1000.3 12.0
09/05:30am 7.4 -3.6 5.2 86 1.0 WSW 52 69 28 37 1000.4 1000.4 11.8
09/05:00am 7.3 -4.6 4.3 81 1.3 WSW 56 76 30 41 999.5 999.5 11.8
09/04:30am 8.1 -3.5 5.7 85 1.1 WSW 56 85 30 46 998.5 998.5 11.6
09/04:09am 7.9 -3.9 5.9 87 0.9 WSW 57 85 31 46 997.6 997.6 11.6
09/04:07am 7.8 -3.8 5.6 86 1.0 WSW 56 83 30 45 997.6 997.6 11.6
09/04:00am 8.0 -3.3 5.5 84 1.1 SW 54 83 29 45 997.8 997.8 10.4
09/03:56am 7.9 -4.3 5.4 84 1.1 WSW 59 83 32 45 997.8 997.8 10.4
09/03:30am 8.8 -4.6 5.5 80 1.5 WSW 65 83 35 45 997.2 997.2 10.4
09/03:00am 8.5 -4.7 6.3 86 1.0 WSW 65 85 35 46 996.3 996.3 10.4
09/02:33am 9.0 -4.0 7.0 87 0.9 WSW 65 85 35 46 996.2 996.2 9.8
09/02:30am 8.7 -4.4 6.7 87 0.9 WSW 65 80 35 43 996.1 996.1 9.8
09/02:00am 9.0 -4.6 6.4 84 1.2 WSW 67 89 36 48 995.2 995.2 9.8
09/01:46am 9.4 -3.3 7.0 85 1.1 WSW 63 82 34 44 995.0 994.9 9.6
09/01:30am 9.2 -3.8 7.0 86 1.0 WSW 65 82 35 44 994.7 994.6 9.4
09/01:00am 9.2 -4.6 7.2 87 1.0 WSW 69 87 37 47 993.7 993.6 9.0
09/12:30am 9.6 -2.9 7.5 87 1.0 WSW 63 89 34 48 993.1 993.0 8.4
09/12:00am 9.6 -4.2 7.2 85 1.1 WSW 69 89 37 48 992.2 992.1 8.2
 
Date/Time
EDT
Temp
°C
App
Temp
°C
Dew
Point
°C
Rel
Hum
%
Delta-T
°C
Wind Press
QNH
hPa
Press
MSL
hPa
Rain since
9am
mm
Dir  Spd
km/h
Gust
km/h
Spd
kts
Gust
kts
08/11:30pm 9.9 -3.0 7.8 87 1.0 WSW 65 91 35 49 991.0 990.9 8.2
08/11:00pm 10.1 -3.0 8.4 89 0.8 WSW 67 96 36 52 989.8 989.7 8.2
08/10:30pm 10.3 -3.2 8.9 91 0.7 WSW 70 98 38 53 988.6 988.5 8.2
08/10:00pm 11.5 1.0 10.2 92 0.7 WSW 56 83 30 45 987.0 986.9 7.8
08/09:46pm 12.2 2.6 10.8 91 0.7 W 52 76 28 41 986.2 986.1 7.6
08/09:42pm 12.3 3.9 10.9 91 0.7 W 46 76 25 41 985.8 985.7 7.4
08/09:40pm 12.3 4.4 10.9 91 0.7 W 43 63 23 34 985.7 985.6 7.2
08/09:30pm 12.1 4.1 10.5 90 0.8 W 43 56 23 30 985.5 985.4 6.6
08/09:18pm 12.1 5.3 10.5 90 0.8 W 37 57 20 31 985.2 985.1 6.6
08/09:00pm 12.1 4.5 10.5 90 0.8 W 41 50 22 27 984.8 984.7 6.6
08/08:42pm 12.2 7.8 10.4 89 0.9 SW 24 43 13 23 984.6 984.5 5.8
08/08:30pm 12.7 9.3 11.1 90 0.8 WSW 20 30 11 16 984.1 984.1 5.0
08/08:00pm 12.6 10.5 11.0 90 0.9 E 13 17 7 9 983.1 983.1 4.6
08/07:30pm 12.8 10.7 11.0 89 0.9 ESE 13 20 7 11 982.5 982.5 4.2
08/07:00pm 13.0 9.7 10.9 87 1.1 ESE 19 26 10 14 981.8 981.8 1.6
08/06:30pm 13.4 8.4 10.9 85 1.3 ESE 28 39 15 21 980.6 980.5 1.0
08/06:00pm 13.9 11.4 10.9 82 1.6 SSE 15 24 8 13 981.0 980.9 1.0
08/05:30pm 14.5 12.4 11.3 81 1.7 SE 13 28 7 15 980.4 980.3 1.0
08/05:00pm 15.7 11.6 11.3 75 2.4 SSE 24 35 13 19 980.5 980.4 1.0
08/04:30pm 15.5 12.5 12.6 83 1.6 SSW 20 33 11 18 981.0 980.9 1.0
08/04:01pm 14.7 10.2 12.6 87 1.2 S 28 57 15 31 980.5 980.4 1.0
08/04:00pm 14.9 10.8 12.8 87 1.2 SSW 26 57 14 31 980.5 980.4 1.0
08/03:30pm 15.3 10.0 12.4 83 1.6 SW 32 50 17 27 981.3 981.3 0.6
08/03:10pm 16.6 13.4 11.3 71 2.9 W 19 48 10 26 981.5 981.5 0.4
08/03:00pm 19.8 19.1 14.2 70 3.3 NNE 11 17 6 9 981.5 981.5 0.4
08/02:30pm 21.7 19.2 13.6 60 4.7 NNE 19 28 10 15 982.0 982.0 0.2
08/02:00pm 22.5 19.5 13.6 57 5.2 NNE 22 33 12 18 983.0 983.0 0.2
08/01:30pm 21.3 19.3 14.0 63 4.2 NNE 17 26 9 14 983.6 983.6 0.2
08/01:00pm 19.9 17.3 13.1 65 3.9 NNE 19 32 10 17 984.7 984.6 0.2
08/12:30pm 18.3 15.8 13.4 73 2.8 NNE 19 32 10 17 985.5 985.4 0.2
08/12:00pm 17.2 14.5 12.9 76 2.4 NNE 19 30 10 16 986.2 986.1 0.2
08/11:30am 16.1 12.6 12.3 78 2.1 N 22 33 12 18 987.0 986.9 0.2
08/11:00am 14.1 10.5 10.7 80 1.8 NNE 20 35 11 19 987.7 987.6 0.2
08/10:30am 14.0 9.1 9.8 76 2.2 NNE 26 43 14 23 988.8 988.7 0.2
08/10:01am 12.9 7.5 9.5 80 1.7 NE 28 48 15 26 989.4 989.3 0.2
08/10:00am 13.0 8.1 9.8 81 1.7 NE 26 44 14 24 989.5 989.4 0.2
08/09:30am 11.7 8.4 9.6 87 1.1 NE 17 22 9 12 991.1 991.0 0.2
08/09:00am 11.8 9.4 9.9 88 1.0 ENE 13 20 7 11 992.3 992.2 1.6
08/08:30am 12.1 8.9 9.8 86 1.2 ENE 17 24 9 13 993.3 993.2 1.0
08/08:00am 12.8 10.0 10.0 83 1.5 NNE 15 20 8 11 994.8 994.7 0.2
08/07:30am 12.7 10.7 10.2 85 1.3 NNE 11 15 6 8 995.3 995.3 0.0
08/07:00am 12.8 9.2 10.0 83 1.5 N 19 26 10 14 995.8 995.8 0.0
08/06:30am 13.3 9.5 9.9 80 1.8 NNE 20 28 11 15 996.3 996.3 0.0
08/06:00am 13.2 9.6 10.0 81 1.7 NNE 19 28 10 15 997.0 997.0 0.0
08/05:30am 12.9 9.4 10.3 84 1.3 N 19 26 10 14 997.6 997.6 0.0
08/05:00am 12.7 9.7 10.6 87 1.1 NE 17 24 9 13 997.5 997.5 0.0
08/04:30am 12.5 9.1 10.4 87 1.1 NNE 19 28 10 15 998.3 998.3 0.0
08/04:00am 12.4 8.7 10.3 87 1.1 NNE 20 32 11 17 998.9 998.9 0.0
08/03:30am 12.5 9.7 9.9 84 1.3 NNE 15 24 8 13 1000.0 1000.0 0.0
08/03:00am 12.4 8.8 9.8 84 1.3 N 19 28 10 15 1000.6 1000.6 0.0
08/02:30am 11.7 8.4 9.4 86 1.2 N 17 20 9 11 1001.4 1001.4 0.0
08/02:00am 11.0 8.6 8.6 85 1.2 NNW 11 13 6 7 1002.1 1002.0 0.0
08/01:30am 11.3 9.3 8.7 84 1.3 ENE 9 11 5 6 1002.9 1002.8 0.0
08/01:00am 11.8 11.6 9.0 83 1.4 CALM 0 0 0 0 1004.5 1004.4 0.0
08/12:30am 11.2 8.8 8.6 84 1.3 ENE 11 13 6 7 1004.6 1004.5 0.0
08/12:00am 11.5 10.1 8.7 83 1.4 NE 6 9 3 5 1005.7 1005.6 0.0
 
Date/Time
EDT
Temp
°C
App
Temp
°C
Dew
Point
°C
Rel
Hum
%
Delta-T
°C
Wind Press
QNH
hPa
Press
MSL
hPa
Rain since
9am
mm
Dir  Spd
km/h
Gust
km/h
Spd
kts
Gust
kts
07/11:30pm 11.3 10.1 8.2 81 1.5 NW 4 9 2 5 1006.3 1006.2 0.0
07/11:00pm 12.2 11.9 8.7 79 1.8 CALM 0 0 0 0 1006.6 1006.5 0.0
07/10:30pm 11.5 9.4 8.2 80 1.6 N 9 11 5 6 1006.7 1006.6 0.0
07/10:00pm 11.7 9.6 8.2 79 1.7 NNE 9 11 5 6 1006.5 1006.4 0.0
07/09:30pm 11.9 9.8 8.4 79 1.7 N 9 11 5 6 1006.9 1006.8 0.0
07/09:00pm 12.1 9.9 8.0 76 2.0 NNE 9 13 5 7 1007.3 1007.2 0.0
07/08:30pm 13.0 11.4 8.9 76 2.1 NE 7 9 4 5 1007.5 1007.4 0.0
07/08:00pm 13.4 9.7 9.5 77 2.0 ESE 19 24 10 13 1007.6 1007.5 0.0
07/07:30pm 13.5 9.6 9.6 77 2.0 ESE 20 30 11 16 1007.7 1007.6 0.0
07/07:00pm 13.8 8.0 9.6 76 2.2 ESE 30 35 16 19 1007.6 1007.5 0.0
07/06:30pm 14.4 8.8 10.2 76 2.2 ESE 30 37 16 20 1007.7 1007.6 0.0
07/06:00pm 14.2 8.9 9.8 75 2.3 ESE 28 33 15 18 1008.0 1007.9 0.0
07/05:30pm 14.1 8.7 9.5 74 2.4 ESE 28 33 15 18 1007.9 1007.8 0.0
07/05:00pm 16.1 11.0 10.6 70 2.9 ESE 28 33 15 18 1008.1 1008.0 0.0
07/04:30pm 15.7 11.1 9.8 68 3.1 ESE 24 28 13 15 1008.0 1007.9 0.0
07/04:00pm 16.8 12.4 10.4 66 3.4 ESE 24 30 13 16 1007.9 1007.8 0.0
07/03:30pm 15.8 12.2 9.7 67 3.2 ESE 19 24 10 13 1008.3 1008.2 0.0
07/03:00pm 16.4 12.7 9.6 64 3.6 SSE 19 22 10 12 1008.4 1008.3 0.0
07/02:30pm 16.8 13.4 10.4 66 3.4 S 19 22 10 12 1008.6 1008.5 0.0
07/02:00pm 16.6 13.2 10.5 67 3.3 S 19 24 10 13 1008.8 1008.7 0.0
07/01:30pm 17.2 13.9 10.8 66 3.4 S 19 24 10 13 1009.1 1009.0 0.0
07/01:00pm 15.8 11.4 9.0 64 3.5 S 22 28 12 15 1009.3 1009.2 0.0
07/12:30pm 16.7 13.0 10.1 65 3.5 S 20 26 11 14 1009.4 1009.4 0.0
07/12:00pm 16.9 13.8 10.3 65 3.5 SSW 17 26 9 14 1009.5 1009.5 0.0
07/11:30am 18.3 15.6 9.1 55 4.8 NW 13 20 7 11 1009.5 1009.5 0.0
07/11:00am 16.0 12.2 9.2 64 3.5 WNW 19 26 10 14 1009.6 1009.6 0.0
07/10:30am 15.9 13.2 8.9 63 3.6 NNW 13 24 7 13 1009.6 1009.6 0.0
07/10:00am 15.4 12.0 9.1 66 3.2 N 17 24 9 13 1009.6 1009.6 0.0
07/09:30am 15.4 12.0 9.1 66 3.2 NNW 17 26 9 14 1009.5 1009.5 0.0
07/09:00am 14.8 11.3 8.7 67 3.1 NNW 17 26 9 14 1009.5 1009.5 0.0
07/08:30am 14.5 10.8 8.0 65 3.2 NNW 17 26 9 14 1009.4 1009.4 0.0
07/08:00am 15.4 12.2 8.6 64 3.5 N 15 32 8 17 1009.2 1009.1 0.0
07/07:30am 14.2 10.1 7.9 66 3.1 N 19 30 10 16 1009.3 1009.2 0.0
07/07:00am 13.3 9.4 7.3 67 2.9 NNW 17 24 9 13 1009.4 1009.4 0.0
07/06:30am 12.9 9.3 6.9 67 2.9 NNW 15 22 8 12 1009.1 1009.0 0.0
07/06:00am 12.8 8.4 6.4 65 3.1 N 19 26 10 14 1008.8 1008.7 0.0
07/05:30am 13.2 8.1 6.1 62 3.4 NW 22 35 12 19 1008.7 1008.6 0.0
07/05:00am 13.3 8.5 5.7 60 3.6 WNW 20 35 11 19 1008.4 1008.3 0.0
07/04:30am 12.9 10.2 5.8 62 3.3 NNW 9 17 5 9 1008.6 1008.5 0.0
07/04:00am 11.8 9.0 5.0 63 3.1 NNW 9 13 5 7 1008.6 1008.5 0.0
07/03:30am 12.4 7.7 6.2 66 2.9 WNW 20 32 11 17 1008.7 1008.6 0.0
07/03:00am 11.6 8.8 5.3 65 2.9 NW 9 15 5 8 1008.8 1008.7 0.0
07/02:30am 11.8 7.5 5.4 65 3.0 N 17 22 9 12 1008.9 1008.8 0.0
07/02:00am 13.0 8.1 5.2 59 3.6 NW 20 35 11 19 1008.9 1008.8 0.0
07/01:30am 13.5 7.7 6.1 61 3.5 WNW 26 35 14 19 1008.9 1008.8 0.0
07/01:00am 13.5 7.0 4.9 56 4.0 WNW 28 41 15 22 1008.8 1008.7 0.0
07/12:30am 12.3 7.9 4.8 60 3.4 NNW 17 24 9 13 1009.2 1009.1 0.0
07/12:00am 13.5 7.0 4.9 56 4.0 WNW 28 41 15 22 1009.4 1009.4 0.0
 
Date/Time
EDT
Temp
°C
App
Temp
°C
Dew
Point
°C
Rel
Hum
%
Delta-T
°C
Wind Press
QNH
hPa
Press
MSL
hPa
Rain since
9am
mm
Dir  Spd
km/h
Gust
km/h
Spd
kts
Gust
kts
06/11:55pm 13.4 7.1 5.8 60 3.6 WNW 28 41 15 22 1009.5 1009.5 0.0
06/11:30pm 13.0 9.3 6.4 64 3.2 WNW 15 24 8 13 1009.8 1009.8 0.0
06/11:00pm 13.1 10.6 6.5 64 3.2 N 9 13 5 7 1009.8 1009.8 0.0
06/10:30pm 13.1 10.5 6.2 63 3.3 N 9 11 5 6 1009.9 1009.9 0.0
06/10:00pm 12.7 10.6 6.5 66 3.0 N 7 11 4 6 1009.7 1009.7 0.0
06/09:30pm 13.6 9.2 6.7 63 3.3 WNW 19 28 10 15 1009.5 1009.5 0.0
06/09:00pm 13.5 9.0 6.8 64 3.2 WNW 20 30 11 16 1009.2 1009.1 0.0
06/08:30pm 13.6 7.6 6.9 64 3.3 W 28 33 15 18 1009.1 1009.0 0.0
06/08:00pm 13.9 6.9 6.7 62 3.5 W 33 44 18 24 1009.1 1009.0 0.0
06/07:30pm 14.9 7.4 6.5 57 4.1 W 35 44 19 24 1008.8 1008.7 0.0
06/07:00pm 15.4 6.4 6.4 55 4.4 W 43 52 23 28 1008.5 1008.4 0.0
06/06:30pm 16.1 8.2 6.3 52 4.8 WNW 37 46 20 25 1008.2 1008.1 0.0
06/06:00pm 16.7 8.8 6.2 50 5.1 WNW 37 46 20 25 1007.9 1007.8 0.0
06/05:30pm 17.2 8.8 5.5 46 5.7 WNW 39 48 21 26 1008.0 1007.9 0.0
06/05:06pm 17.3 12.4 6.8 50 5.2 WNW 22 39 12 21 1007.9 1007.8 0.0
06/05:00pm 17.0 13.7 6.5 50 5.2 WNW 13 20 7 11 1008.1 1008.0 0.0
06/04:30pm 17.3 14.5 5.3 45 5.8 WNW 9 13 5 7 1008.3 1008.2 0.0
06/04:00pm 17.7 15.5 8.0 53 5.0 SW 9 30 5 16 1008.6 1008.5 0.0
06/03:30pm 16.5 13.8 7.4 55 4.6 SSW 11 17 6 9 1008.8 1008.7 0.0
06/03:00pm 16.7 14.6 8.4 58 4.3 W 9 17 5 9 1009.0 1008.9 0.0
06/02:30pm 15.3 12.5 8.5 64 3.5 SW 13 17 7 9 1009.2 1009.1 0.0
06/02:00pm 13.6 9.2 6.7 63 3.3 SW 19 30 10 16 1009.5 1009.5 0.0
06/01:30pm 15.6 12.9 5.8 52 4.7 W 9 15 5 8 1009.5 1009.5 0.0
06/01:00pm 16.2 11.8 7.2 55 4.5 WSW 20 28 11 15 1009.7 1009.7 0.0
06/12:30pm 15.1 11.3 5.9 54 4.4 WNW 15 20 8 11 1009.7 1009.7 0.0
06/12:00pm 16.0 12.6 5.9 51 4.9 WNW 13 17 7 9 1009.7 1009.7 0.0
06/11:30am 15.2 11.8 5.7 53 4.5 WNW 13 19 7 10 1009.8 1009.8 0.0
06/11:00am 13.5 10.6 4.4 54 4.2 W 9 17 5 9 1010.2 1010.2 0.0
06/10:30am 14.3 11.5 5.1 54 4.3 W 9 13 5 7 1010.1 1010.1 0.0
06/10:00am 12.9 10.5 5.1 59 3.6 NNW 7 17 4 9 1010.3 1010.3 0.0
06/09:30am 12.9 10.2 5.8 62 3.3 NNE 9 15 5 8 1010.4 1010.4 0.0
06/09:00am 12.5 9.4 5.7 63 3.2 N 11 17 6 9 1010.8 1010.8 0.0
06/08:30am 11.9 8.7 4.9 62 3.2 NNE 11 15 6 8 1010.6 1010.6 0.0
06/08:00am 11.6 8.8 5.3 65 2.9 N 9 13 5 7 1010.9 1010.9 0.0
06/07:30am 11.3 6.2 4.1 61 3.2 WNW 20 30 11 16 1011.0 1011.0 0.0

Latest Capital City Observations: Canberra | Sydney | Melbourne | Brisbane | Adelaide | Perth | Hobart | Darwin

Other Formats:

Comma delimited format used in spreadsheet applications
http://www.bom.gov.au/fwo/IDT60901/IDT60901.95967.axf

JavaScript Object Notation format (JSON) in row-major order
http://www.bom.gov.au/fwo/IDT60901/IDT60901.95967.json